Time;durP1;ratioP1;P1;durP2;ratioP2;P2;SDS_P1;SDS_P2;PMS_P1;PMS_P2;Temp;Humidity;BMP_temperature;BMP_pressure;BME280_temperature;BME280_humidity;BME280_pressure;Samples;Min_cycle;Max_cycle;Signal;HPM_P1;HPM_P2
2021/09/18 08:30:22;;;;;;;9.73;7.40;;;15.60;99.90;;;;;;5107568;27;21022;-77
2021/09/18 08:32:48;;;;;;;9.75;7.00;;;15.60;99.90;;;;;;5090389;28;20028;-78
2021/09/18 08:35:14;;;;;;;11.07;8.10;;;15.60;99.90;;;;;;5087077;28;20027;-77
2021/09/18 08:37:41;;;;;;;11.30;7.70;;;15.70;99.90;;;;;;5087059;28;20029;-78
2021/09/18 08:40:08;;;;;;;9.80;7.63;;;15.80;99.90;;;;;;5093190;28;20032;-78
2021/09/18 08:42:33;;;;;;;10.48;8.15;;;15.90;99.90;;;;;;5087700;28;20032;-77
2021/09/18 08:45:00;;;;;;;10.70;7.65;;;16.00;99.90;;;;;;5087463;28;20052;-78
2021/09/18 08:47:28;;;;;;;10.98;7.63;;;16.00;99.90;;;;;;5083182;28;20555;-78
2021/09/18 08:49:54;;;;;;;9.20;6.95;;;16.00;99.90;;;;;;5052180;28;20134;-78
2021/09/18 08:52:20;;;;;;;10.55;7.82;;;16.00;99.90;;;;;;5084391;28;20104;-78
2021/09/18 08:54:46;;;;;;;9.50;7.03;;;16.10;99.90;;;;;;5072896;28;20031;-78
2021/09/18 08:57:12;;;;;;;14.88;6.85;;;16.20;99.90;;;;;;5087768;28;20112;-78
2021/09/18 08:59:39;;;;;;;9.68;6.32;;;16.30;99.90;;;;;;5087469;28;20059;-78
2021/09/18 09:02:33;;;;;;;10.05;7.00;;;16.20;99.90;;;;;;5074879;28;20631;-78
2021/09/18 09:05:08;;;;;;;13.82;7.45;;;16.20;99.90;;;;;;5085014;28;20041;-79
2021/09/18 09:07:34;;;;;;;10.40;7.53;;;16.10;99.90;;;;;;5085663;28;20104;-77
2021/09/18 09:10:02;;;;;;;10.30;7.35;;;16.10;99.90;;;;;;5084314;28;20867;-78
2021/09/18 09:12:37;;;;;;;10.35;6.78;;;16.10;99.90;;;;;;5089332;28;20032;-78
2021/09/18 09:15:18;;;;;;;8.55;6.32;;;16.10;99.90;;;;;;5087317;28;20032;-78
2021/09/18 09:17:51;;;;;;;9.35;6.55;;;16.10;99.90;;;;;;5086260;28;20028;-78
2021/09/18 09:20:23;;;;;;;8.38;6.25;;;16.10;99.90;;;;;;5088691;28;20539;-78
2021/09/18 09:22:50;;;;;;;8.75;5.95;;;16.10;99.90;;;;;;5087387;28;20077;-78
2021/09/18 09:25:30;;;;;;;8.00;6.38;;;16.20;99.90;;;;;;5086819;28;20037;-77
2021/09/18 09:27:58;;;;;;;8.27;6.00;;;16.20;99.90;;;;;;5072383;28;20046;-78
2021/09/18 09:30:29;;;;;;;7.32;5.78;;;16.20;99.90;;;;;;5084539;28;20085;-78
2021/09/18 09:33:03;;;;;;;7.85;5.80;;;16.20;99.90;;;;;;5085443;28;20032;-77
2021/09/18 09:35:29;;;;;;;9.38;5.78;;;16.30;99.90;;;;;;5081453;28;20062;-79
2021/09/18 09:37:56;;;;;;;7.47;5.53;;;16.40;99.90;;;;;;5060181;28;20454;-78
2021/09/18 09:40:39;;;;;;;5.63;4.65;;;16.50;99.90;;;;;;5076874;28;20025;-78
2021/09/18 09:43:06;;;;;;;5.85;4.63;;;16.50;99.90;;;;;;5074313;28;20016;-79
2021/09/18 09:45:32;;;;;;;6.07;4.00;;;16.40;99.90;;;;;;5070501;28;20055;-78
2021/09/18 09:48:18;;;;;;;6.72;3.65;;;16.40;99.90;;;;;;5068902;28;20031;-79
2021/09/18 09:51:01;;;;;;;4.00;3.17;;;16.30;99.90;;;;;;5066555;28;20028;-78
2021/09/18 09:53:30;;;;;;;5.70;4.28;;;16.30;99.90;;;;;;5062156;28;20021;-78
2021/09/18 09:55:57;;;;;;;4.45;3.05;;;16.40;99.90;;;;;;5070043;28;20091;-79
2021/09/18 09:58:24;;;;;;;2.65;2.45;;;16.50;99.90;;;;;;5068499;28;20033;-79
2021/09/18 10:00:51;;;;;;;3.55;3.22;;;16.60;99.90;;;;;;5065096;28;20032;-79
2021/09/18 10:03:22;;;;;;;5.72;3.22;;;16.70;99.90;;;;;;5071324;28;20469;-78
2021/09/18 10:05:48;;;;;;;2.78;1.80;;;16.80;99.90;;;;;;5076512;28;20188;-78
2021/09/18 10:08:20;;;;;;;2.78;2.00;;;16.80;99.90;;;;;;5064609;28;20170;-78
2021/09/18 10:10:46;;;;;;;3.33;2.80;;;16.70;99.90;;;;;;5039517;28;20051;-78
2021/09/18 10:13:12;;;;;;;2.85;2.42;;;16.70;99.90;;;;;;5069178;28;20490;-78
2021/09/18 10:15:38;;;;;;;3.33;2.65;;;16.80;99.90;;;;;;5068248;28;20032;-78
2021/09/18 10:18:05;;;;;;;3.15;2.60;;;16.80;99.90;;;;;;5066820;28;20091;-77
2021/09/18 10:23:18;;;;;;;4.60;2.53;;;17.20;99.90;;;;;;5070013;28;20035;-78
2021/09/18 10:25:49;;;;;;;2.60;2.33;;;17.40;99.90;;;;;;5045687;28;20157;-78
2021/09/18 10:28:45;;;;;;;2.85;2.55;;;17.60;99.90;;;;;;5058336;28;20452;-78
2021/09/18 10:31:21;;;;;;;2.60;2.40;;;17.70;99.90;;;;;;5065879;28;20040;-78
2021/09/18 10:33:50;;;;;;;2.65;2.30;;;17.70;99.90;;;;;;5068632;28;20047;-78
